Time;durP1;ratioP1;P1;durP2;ratioP2;P2;SDS_P1;SDS_P2;PMS_P1;PMS_P2;Temp;Humidity;BMP_temperature;BMP_pressure;BME280_temperature;BME280_humidity;BME280_pressure;Samples;Min_cycle;Max_cycle;Signal;HPM_P1;HPM_P2
2023/04/15 00:01:17;;;;;;;1.30;0.70;;;19.50;65.10;;;;;;5039785;28;20053;-74
2023/04/15 00:03:45;;;;;;;1.23;0.40;;;19.50;65.00;;;;;;5041594;28;20497;-74
2023/04/15 00:06:12;;;;;;;1.17;0.50;;;19.50;65.10;;;;;;5044813;28;20045;-73
2023/04/15 00:08:39;;;;;;;1.70;0.82;;;19.50;65.10;;;;;;5031203;28;20050;-73
2023/04/15 00:11:06;;;;;;;1.10;0.63;;;19.50;65.10;;;;;;5040645;28;20045;-73
2023/04/15 00:13:33;;;;;;;1.10;0.52;;;19.50;65.00;;;;;;5021330;28;20057;-73
2023/04/15 00:16:02;;;;;;;1.95;0.73;;;19.40;65.00;;;;;;5032641;28;20140;-73
2023/04/15 00:18:30;;;;;;;1.92;1.10;;;19.40;65.00;;;;;;5034962;28;20049;-73
2023/04/15 00:20:57;;;;;;;1.30;0.60;;;19.40;65.00;;;;;;5036207;28;20080;-73
2023/04/15 00:23:24;;;;;;;1.33;0.52;;;19.40;65.60;;;;;;5032570;28;20509;-73
2023/04/15 00:25:51;;;;;;;1.27;0.77;;;19.40;65.10;;;;;;5035368;28;20051;-73
2023/04/15 00:28:18;;;;;;;1.10;0.50;;;19.40;65.00;;;;;;5030392;28;20141;-73
2023/04/15 00:30:46;;;;;;;1.20;0.77;;;19.40;65.00;;;;;;5047724;28;20049;-73
2023/04/15 00:33:15;;;;;;;0.93;0.47;;;19.30;64.90;;;;;;5045359;28;20057;-72
2023/04/15 00:35:42;;;;;;;0.93;0.63;;;19.30;65.00;;;;;;5037835;28;20139;-73
2023/04/15 00:38:09;;;;;;;1.40;0.63;;;19.30;64.90;;;;;;5029099;28;20510;-73
2023/04/15 00:40:36;;;;;;;0.80;0.47;;;19.30;64.90;;;;;;5041224;28;20631;-73
2023/04/15 00:43:04;;;;;;;0.95;0.60;;;19.30;64.90;;;;;;5038653;28;20052;-73
2023/04/15 00:45:32;;;;;;;1.00;0.45;;;19.30;64.90;;;;;;5046419;28;20045;-73
2023/04/15 00:47:59;;;;;;;1.00;0.55;;;19.30;64.90;;;;;;5034123;28;20057;-73
2023/04/15 00:50:27;;;;;;;0.90;0.60;;;19.30;64.90;;;;;;5035979;28;20045;-72
2023/04/15 00:52:54;;;;;;;1.30;0.50;;;19.30;64.80;;;;;;5044038;28;20052;-72
2023/04/15 00:55:22;;;;;;;1.15;0.68;;;19.30;64.80;;;;;;5045142;28;20053;-74
2023/04/15 00:57:49;;;;;;;1.25;0.65;;;19.20;64.80;;;;;;5040147;28;20056;-72
2023/04/15 01:00:16;;;;;;;1.15;0.65;;;19.30;64.80;;;;;;5033893;28;20056;-72
2023/04/15 01:02:43;;;;;;;1.55;0.70;;;19.30;64.80;;;;;;5037830;28;20053;-72
2023/04/15 01:05:10;;;;;;;1.55;0.63;;;19.30;64.80;;;;;;5027697;28;20053;-73
2023/04/15 01:07:38;;;;;;;1.05;0.95;;;19.30;64.80;;;;;;5032129;28;20056;-74
2023/04/15 01:10:06;;;;;;;0.95;0.30;;;19.20;64.80;;;;;;5037228;28;20453;-73
2023/04/15 01:12:34;;;;;;;1.25;0.68;;;19.20;64.70;;;;;;5043869;28;20049;-73
2023/04/15 01:15:02;;;;;;;2.03;0.68;;;19.30;64.80;;;;;;5025687;28;20491;-73
2023/04/15 01:17:29;;;;;;;1.45;0.55;;;19.20;64.70;;;;;;5039617;28;20053;-73
2023/04/15 01:19:56;;;;;;;0.98;0.63;;;19.20;64.60;;;;;;5019688;28;20125;-73
2023/04/15 01:22:24;;;;;;;2.17;0.43;;;19.30;64.60;;;;;;5032139;28;20131;-73
2023/04/15 01:25:01;;;;;;;1.55;0.50;;;19.30;64.50;;;;;;5034477;28;20077;-73
2023/04/15 01:27:30;;;;;;;0.85;0.52;;;19.30;64.50;;;;;;5032924;28;20057;-73
2023/04/15 01:29:57;;;;;;;1.25;0.47;;;19.40;64.40;;;;;;5028019;28;20057;-73
2023/04/15 01:32:24;;;;;;;1.55;0.63;;;19.50;64.30;;;;;;5033282;28;20049;-73
2023/04/15 01:34:51;;;;;;;1.00;0.88;;;19.50;64.30;;;;;;5028167;28;20045;-73
2023/04/15 01:37:18;;;;;;;1.00;0.52;;;19.60;64.20;;;;;;5031372;28;20061;-73
2023/04/15 01:39:45;;;;;;;1.35;0.63;;;19.60;64.10;;;;;;5023525;28;20045;-73
2023/04/15 01:42:14;;;;;;;1.17;0.68;;;19.70;64.60;;;;;;5038462;28;20060;-73
2023/04/15 01:44:43;;;;;;;1.23;1.08;;;19.70;63.90;;;;;;5040419;28;20056;-73
2023/04/15 01:47:09;;;;;;;1.05;0.45;;;19.80;63.80;;;;;;5043073;28;20044;-73
2023/04/15 01:49:36;;;;;;;0.90;0.60;;;19.90;63.80;;;;;;5035302;28;20052;-73
2023/04/15 01:52:03;;;;;;;1.25;0.75;;;19.90;63.60;;;;;;5038971;28;20068;-72
2023/04/15 01:54:30;;;;;;;1.30;0.40;;;20.00;63.50;;;;;;5038512;28;20049;-73
2023/04/15 01:56:57;;;;;;;1.33;0.57;;;20.00;63.40;;;;;;5036511;28;20056;-73
2023/04/15 01:59:25;;;;;;;0.60;0.40;;;20.10;63.40;;;;;;5033611;28;20049;-73
2023/04/15 02:01:54;;;;;;;0.85;0.40;;;20.10;63.90;;;;;;5029884;28;20049;-73
2023/04/15 02:04:20;;;;;;;1.10;0.60;;;20.10;63.80;;;;;;5030734;28;20064;-73
2023/04/15 02:06:47;;;;;;;0.77;0.50;;;20.10;63.20;;;;;;5044153;28;20052;-73
2023/04/15 02:09:14;;;;;;;0.82;0.70;;;20.10;63.30;;;;;;5040810;28;20124;-73
2023/04/15 02:11:41;;;;;;;0.68;0.52;;;20.10;63.30;;;;;;5039836;28;20052;-73
2023/04/15 02:14:08;;;;;;;1.15;0.80;;;20.10;63.30;;;;;;5019731;28;20053;-73
2023/04/15 02:16:35;;;;;;;1.10;0.60;;;20.10;63.30;;;;;;5034188;28;20405;-73
2023/04/15 02:19:03;;;;;;;1.05;0.57;;;20.10;63.30;;;;;;5024512;28;20037;-73
2023/04/15 02:21:30;;;;;;;0.80;0.50;;;20.10;63.30;;;;;;5045783;28;20056;-72
2023/04/15 02:23:57;;;;;;;0.77;0.45;;;20.10;63.30;;;;;;5037229;28;20037;-73
2023/04/15 02:26:24;;;;;;;1.08;0.93;;;20.00;63.40;;;;;;5032879;28;20053;-73
2023/04/15 02:28:51;;;;;;;1.10;0.88;;;20.00;63.40;;;;;;5033627;28;20136;-73
2023/04/15 02:31:20;;;;;;;0.90;0.50;;;20.00;63.40;;;;;;5029473;28;20052;-73
2023/04/15 02:33:46;;;;;;;1.48;0.93;;;19.90;63.40;;;;;;5032087;28;20132;-73
2023/04/15 02:36:15;;;;;;;1.10;0.60;;;19.90;63.40;;;;;;5040088;28;20091;-73
2023/04/15 02:38:42;;;;;;;1.05;0.63;;;19.90;63.40;;;;;;5028664;28;20045;-73
2023/04/15 02:41:09;;;;;;;1.15;0.70;;;19.90;63.50;;;;;;5029815;28;20458;-73
2023/04/15 02:43:36;;;;;;;0.82;0.30;;;19.90;63.50;;;;;;5029093;28;20457;-73
2023/04/15 02:46:03;;;;;;;1.48;0.50;;;19.90;63.50;;;;;;5020675;28;20052;-73
2023/04/15 02:48:31;;;;;;;0.80;0.50;;;19.80;63.50;;;;;;5015041;28;20056;-73
2023/04/15 02:51:12;;;;;;;1.20;0.70;;;19.80;63.50;;;;;;5030290;28;20052;-73
2023/04/15 02:53:41;;;;;;;1.42;0.75;;;19.80;63.50;;;;;;5037351;28;20063;-73
2023/04/15 02:56:08;;;;;;;0.88;0.60;;;19.70;63.50;;;;;;5042220;28;20087;-73
2023/04/15 02:58:35;;;;;;;1.10;0.40;;;19.70;63.50;;;;;;5031952;28;20140;-73
2023/04/15 03:01:02;;;;;;;0.98;0.88;;;19.60;63.60;;;;;;5043617;28;20099;-73
2023/04/15 03:03:29;;;;;;;0.77;0.15;;;19.70;63.70;;;;;;5015939;28;20421;-73
2023/04/15 03:05:56;;;;;;;1.13;0.55;;;19.60;63.60;;;;;;5026886;28;20045;-73
2023/04/15 03:08:23;;;;;;;1.20;1.00;;;19.60;63.70;;;;;;5026330;28;20049;-73
2023/04/15 03:10:52;;;;;;;1.08;0.68;;;19.60;63.70;;;;;;5021542;28;20049;-73
2023/04/15 03:13:19;;;;;;;1.10;0.43;;;19.50;63.70;;;;;;5045174;28;20053;-74
2023/04/15 03:15:47;;;;;;;0.93;0.55;;;19.50;63.70;;;;;;5032657;28;20057;-73
2023/04/15 03:18:14;;;;;;;1.17;0.55;;;19.50;63.70;;;;;;5026586;28;20109;-73
2023/04/15 03:20:40;;;;;;;0.85;0.50;;;19.50;63.80;;;;;;5030604;28;20054;-73
2023/04/15 03:23:07;;;;;;;1.27;0.57;;;19.50;63.70;;;;;;5031477;28;20657;-73
2023/04/15 03:25:36;;;;;;;0.80;0.50;;;19.50;63.80;;;;;;5029483;28;20045;-73
2023/04/15 03:28:04;;;;;;;1.40;0.55;;;19.50;63.90;;;;;;5028007;28;20100;-73
2023/04/15 03:30:31;;;;;;;0.98;0.57;;;19.40;63.80;;;;;;5039712;28;20041;-73
2023/04/15 03:32:58;;;;;;;0.88;0.20;;;19.40;63.80;;;;;;5030092;28;20451;-73
2023/04/15 03:35:25;;;;;;;1.13;0.60;;;19.40;63.80;;;;;;5033767;28;20076;-72
2023/04/15 03:37:52;;;;;;;0.80;0.63;;;19.40;63.90;;;;;;5021065;28;20049;-73
2023/04/15 03:40:20;;;;;;;1.85;0.50;;;19.30;63.80;;;;;;5033645;28;20506;-72
2023/04/15 03:42:47;;;;;;;0.98;0.65;;;19.30;63.80;;;;;;5033028;28;20053;-73
2023/04/15 03:45:16;;;;;;;1.00;0.60;;;19.30;63.80;;;;;;5043096;28;20053;-73
2023/04/15 03:47:43;;;;;;;1.08;0.60;;;19.30;63.80;;;;;;5038445;28;20053;-73
2023/04/15 03:50:10;;;;;;;1.00;0.50;;;19.30;63.80;;;;;;5023403;28;20045;-73
2023/04/15 03:52:37;;;;;;;0.30;0.00;;;19.30;63.80;;;;;;5028603;28;20355;-73
2023/04/15 03:55:05;;;;;;;1.15;0.60;;;19.30;63.80;;;;;;5026036;28;20498;-73
2023/04/15 03:57:36;;;;;;;0.98;0.90;;;19.30;63.90;;;;;;5028603;28;20046;-73
2023/04/15 04:00:04;;;;;;;1.05;0.82;;;19.30;63.80;;;;;;5022114;28;20138;-73
2023/04/15 04:02:32;;;;;;;0.98;0.55;;;19.20;63.80;;;;;;5027271;28;20053;-72
2023/04/15 04:04:59;;;;;;;1.05;0.60;;;19.30;63.70;;;;;;5033501;28;20073;-73
2023/04/15 04:07:26;;;;;;;0.73;0.55;;;19.30;63.70;;;;;;5034295;28;20049;-73
2023/04/15 04:09:53;;;;;;;1.48;0.88;;;19.30;63.70;;;;;;5034146;28;20049;-73
2023/04/15 04:12:20;;;;;;;1.58;0.57;;;19.40;63.60;;;;;;5037468;28;20053;-73
2023/04/15 04:14:47;;;;;;;0.90;0.80;;;19.40;63.60;;;;;;5044042;28;20045;-72
2023/04/15 04:17:14;;;;;;;1.00;0.45;;;19.50;63.50;;;;;;5042909;28;20057;-72
2023/04/15 04:19:43;;;;;;;0.85;0.60;;;19.50;63.60;;;;;;5038651;28;20056;-73
2023/04/15 04:22:10;;;;;;;0.88;0.50;;;19.60;63.40;;;;;;5035677;28;20046;-73
2023/04/15 04:24:37;;;;;;;1.10;0.40;;;19.60;63.30;;;;;;5034272;28;20042;-73
2023/04/15 04:27:04;;;;;;;1.63;0.77;;;19.70;63.20;;;;;;5034976;28;20559;-73
2023/04/15 04:29:31;;;;;;;0.73;0.43;;;19.70;63.10;;;;;;5033314;28;20068;-73
2023/04/15 04:31:58;;;;;;;0.65;0.40;;;19.80;63.00;;;;;;5030427;28;20102;-73
2023/04/15 04:34:25;;;;;;;1.08;0.10;;;19.90;62.90;;;;;;5032184;28;20259;-73
2023/04/15 04:36:53;;;;;;;0.98;0.60;;;19.90;62.80;;;;;;5030598;28;20085;-72
2023/04/15 04:39:20;;;;;;;1.10;0.60;;;20.00;62.80;;;;;;5039305;28;20056;-73
2023/04/15 04:41:47;;;;;;;0.70;0.43;;;20.00;62.60;;;;;;5030910;28;20053;-73
2023/04/15 04:44:14;;;;;;;1.05;0.80;;;20.10;62.60;;;;;;5036677;28;20060;-73
2023/04/15 04:46:41;;;;;;;1.05;0.50;;;20.10;62.50;;;;;;5045255;28;20058;-73
2023/04/15 04:49:08;;;;;;;0.88;0.70;;;20.10;62.50;;;;;;5043527;28;20056;-73
2023/04/15 04:51:35;;;;;;;1.02;0.50;;;20.10;62.50;;;;;;5033035;28;20061;-73
2023/04/15 04:54:04;;;;;;;0.77;0.40;;;20.10;62.40;;;;;;5039069;28;20478;-73
2023/04/15 04:56:33;;;;;;;0.70;0.60;;;20.10;62.50;;;;;;5033293;28;20088;-73
2023/04/15 04:59:00;;;;;;;0.73;0.52;;;20.10;62.50;;;;;;5031367;28;20133;-73
2023/04/15 05:01:27;;;;;;;0.90;0.60;;;20.10;62.50;;;;;;5024266;28;20049;-73
2023/04/15 05:03:55;;;;;;;0.70;0.40;;;20.10;62.50;;;;;;5031332;28;20089;-73
2023/04/15 05:06:22;;;;;;;0.60;0.50;;;20.00;62.50;;;;;;5031710;28;20073;-73
2023/04/15 05:08:49;;;;;;;0.82;0.63;;;20.00;62.60;;;;;;5032927;28;20502;-72
2023/04/15 05:11:17;;;;;;;1.10;0.57;;;20.00;62.60;;;;;;5037539;28;20048;-73
2023/04/15 05:13:44;;;;;;;0.93;0.50;;;20.00;62.60;;;;;;5032056;28;20041;-73
2023/04/15 05:16:11;;;;;;;0.80;0.50;;;19.90;62.60;;;;;;5036377;28;20103;-73
2023/04/15 05:18:38;;;;;;;0.98;0.52;;;19.90;63.20;;;;;;5030543;28;20053;-73
2023/04/15 05:21:05;;;;;;;0.70;0.55;;;19.90;62.60;;;;;;5039897;28;20085;-73
2023/04/15 05:23:32;;;;;;;0.40;0.10;;;19.90;62.70;;;;;;5029010;28;20426;-73
2023/04/15 05:25:59;;;;;;;0.57;0.20;;;19.90;62.70;;;;;;5043814;28;20417;-74
2023/04/15 05:28:27;;;;;;;0.82;0.40;;;19.80;62.70;;;;;;5035899;28;20053;-73
2023/04/15 05:30:55;;;;;;;0.50;0.10;;;19.80;62.70;;;;;;5035526;28;20405;-72
2023/04/15 05:33:22;;;;;;;1.10;0.60;;;19.80;62.80;;;;;;5028339;28;20076;-73
2023/04/15 05:35:49;;;;;;;0.98;0.57;;;19.70;62.70;;;;;;5030553;28;20057;-73
2023/04/15 05:38:16;;;;;;;0.90;0.55;;;19.70;62.80;;;;;;5035694;28;20532;-73
2023/04/15 05:40:43;;;;;;;0.90;0.50;;;19.70;62.80;;;;;;5036009;28;20052;-73
2023/04/15 05:43:10;;;;;;;0.90;0.73;;;19.70;62.80;;;;;;5025739;28;20045;-74
2023/04/15 05:45:38;;;;;;;1.08;0.60;;;19.70;62.90;;;;;;5030559;28;20076;-73
2023/04/15 05:48:05;;;;;;;0.88;0.50;;;19.60;62.80;;;;;;5021356;28;20049;-73
2023/04/15 05:50:32;;;;;;;0.80;0.55;;;19.60;62.90;;;;;;5039744;28;20059;-73
2023/04/15 05:53:00;;;;;;;0.90;0.50;;;19.60;62.90;;;;;;5042371;28;20129;-74
2023/04/15 05:55:27;;;;;;;1.17;0.47;;;19.60;63.00;;;;;;5046855;28;20076;-73
2023/04/15 05:57:54;;;;;;;0.93;0.50;;;19.50;62.90;;;;;;5048535;28;22154;-73
2023/04/15 06:00:21;;;;;;;0.95;0.75;;;19.50;63.00;;;;;;5049630;28;20052;-73
2023/04/15 06:02:50;;;;;;;0.80;0.55;;;19.50;63.00;;;;;;5034047;28;20058;-73
2023/04/15 06:05:17;;;;;;;1.73;0.65;;;19.50;63.00;;;;;;5048226;28;20493;-72
2023/04/15 06:07:44;;;;;;;0.88;0.40;;;19.50;63.00;;;;;;5040952;28;20053;-73
2023/04/15 06:10:11;;;;;;;0.70;0.50;;;19.50;63.00;;;;;;5046416;28;20050;-73
2023/04/15 06:12:38;;;;;;;0.98;0.45;;;19.40;63.00;;;;;;5042665;28;20058;-73
2023/04/15 06:15:08;;;;;;;1.08;0.77;;;19.40;63.00;;;;;;5042133;28;20072;-73
2023/04/15 06:17:35;;;;;;;0.82;0.40;;;19.40;63.10;;;;;;5032806;28;20053;-73
2023/04/15 06:20:04;;;;;;;0.77;0.50;;;19.40;63.10;;;;;;5040249;28;20037;-72
2023/04/15 06:22:37;;;;;;;0.63;0.40;;;19.40;63.10;;;;;;5044678;28;20049;-73
2023/04/15 06:25:05;;;;;;;0.80;0.50;;;19.30;63.70;;;;;;5044166;28;20049;-73
2023/04/15 06:27:32;;;;;;;0.60;0.08;;;19.40;63.10;;;;;;5044097;28;20418;-73
2023/04/15 06:29:59;;;;;;;1.10;0.63;;;19.40;63.10;;;;;;5047931;28;20777;-73
2023/04/15 06:32:26;;;;;;;1.65;1.55;;;19.30;63.10;;;;;;5036116;28;20064;-73
2023/04/15 06:34:53;;;;;;;1.15;0.68;;;19.30;63.10;;;;;;5040852;28;20053;-73
2023/04/15 06:37:21;;;;;;;0.98;0.77;;;19.30;63.10;;;;;;5034405;28;20170;-73
2023/04/15 06:39:48;;;;;;;0.93;0.38;;;19.30;63.10;;;;;;5048793;28;20072;-73
2023/04/15 06:42:15;;;;;;;1.00;0.52;;;19.30;63.10;;;;;;5042662;28;20053;-73
2023/04/15 06:44:42;;;;;;;1.10;0.70;;;19.30;63.10;;;;;;5030433;28;20049;-73
2023/04/15 06:47:09;;;;;;;0.80;0.45;;;19.40;63.10;;;;;;5046095;28;20040;-73
2023/04/15 06:49:36;;;;;;;0.90;0.60;;;19.40;63.00;;;;;;5048550;28;20048;-73
2023/04/15 06:52:04;;;;;;;0.93;0.57;;;19.50;63.00;;;;;;5045298;28;20117;-73
2023/04/15 06:54:32;;;;;;;1.10;0.93;;;19.50;62.90;;;;;;5037513;28;20124;-73
2023/04/15 06:56:59;;;;;;;0.80;0.40;;;19.50;62.80;;;;;;5029665;28;20049;-73
2023/04/15 06:59:26;;;;;;;0.88;0.47;;;19.70;62.80;;;;;;5023831;28;20059;-73
2023/04/15 07:01:53;;;;;;;0.77;0.47;;;19.70;62.70;;;;;;5017628;28;20053;-71
2023/04/15 07:04:20;;;;;;;1.63;0.50;;;19.80;62.70;;;;;;5025159;28;20068;-72
2023/04/15 07:06:47;;;;;;;0.93;0.70;;;19.90;62.60;;;;;;5020928;28;20045;-73
2023/04/15 07:09:14;;;;;;;1.00;0.52;;;19.90;62.40;;;;;;5024462;28;20049;-73
2023/04/15 07:11:42;;;;;;;1.42;0.60;;;20.00;62.40;;;;;;5013840;28;20592;-73
2023/04/15 07:14:09;;;;;;;1.35;0.70;;;20.10;62.30;;;;;;5031849;28;20528;-73
2023/04/15 07:16:36;;;;;;;1.02;0.60;;;20.10;62.10;;;;;;5024660;28;20054;-73
2023/04/15 07:19:03;;;;;;;0.90;0.52;;;20.20;62.10;;;;;;5023436;28;20607;-73
2023/04/15 07:21:31;;;;;;;0.70;0.52;;;20.30;62.00;;;;;;5024367;28;20053;-73
2023/04/15 07:23:58;;;;;;;0.80;0.50;;;20.30;62.00;;;;;;5033466;28;20052;-73
2023/04/15 07:26:25;;;;;;;1.10;0.57;;;20.30;62.00;;;;;;5031758;28;20053;-73
2023/04/15 07:28:53;;;;;;;1.15;0.70;;;20.30;62.00;;;;;;5033095;28;20053;-73
2023/04/15 07:31:20;;;;;;;0.90;0.52;;;20.30;62.00;;;;;;5018086;28;20049;-73
2023/04/15 07:33:47;;;;;;;1.38;0.40;;;20.30;62.00;;;;;;5039693;28;20055;-73
2023/04/15 07:36:15;;;;;;;1.15;0.85;;;20.30;62.00;;;;;;5042893;28;20536;-73
2023/04/15 07:38:42;;;;;;;0.80;0.30;;;20.30;62.00;;;;;;5026981;28;20049;-72
2023/04/15 07:41:09;;;;;;;0.57;0.30;;;20.30;62.00;;;;;;5038330;28;20493;-73
2023/04/15 07:43:36;;;;;;;1.10;0.63;;;20.30;62.00;;;;;;5031641;28;20240;-73
2023/04/15 07:46:05;;;;;;;1.00;0.60;;;20.30;62.10;;;;;;5034143;28;20051;-73
2023/04/15 07:48:32;;;;;;;1.58;0.65;;;20.30;62.10;;;;;;5047024;28;20049;-73
2023/04/15 07:50:59;;;;;;;1.77;0.52;;;20.30;62.10;;;;;;5035120;28;20053;-72
2023/04/15 07:53:26;;;;;;;1.10;0.50;;;20.30;62.20;;;;;;5036395;28;20068;-73
2023/04/15 07:55:53;;;;;;;0.60;0.38;;;20.20;62.20;;;;;;5036219;28;20128;-72
2023/04/15 07:58:20;;;;;;;0.70;0.40;;;20.20;62.20;;;;;;5032115;28;20075;-73
2023/04/15 08:00:47;;;;;;;2.42;0.50;;;20.30;62.30;;;;;;5036069;28;20061;-72
2023/04/15 08:03:16;;;;;;;1.00;0.70;;;20.20;62.40;;;;;;5033286;28;20061;-72
2023/04/15 08:05:43;;;;;;;0.85;0.40;;;20.20;62.40;;;;;;5030280;28;20045;-71
2023/04/15 08:08:10;;;;;;;1.05;0.47;;;20.20;62.60;;;;;;5031849;28;20116;-72
2023/04/15 08:10:37;;;;;;;1.00;0.68;;;20.20;62.60;;;;;;5023235;28;20060;-71
2023/04/15 08:13:04;;;;;;;1.70;0.43;;;20.10;62.70;;;;;;5034151;28;20140;-74
2023/04/15 08:15:32;;;;;;;0.93;0.32;;;20.10;62.70;;;;;;5022814;28;20046;-76
2023/04/15 08:18:00;;;;;;;1.40;0.40;;;20.10;62.80;;;;;;5027792;28;20053;-75
2023/04/15 08:20:28;;;;;;;0.88;0.30;;;20.10;62.90;;;;;;5032850;28;20099;-76
2023/04/15 08:22:55;;;;;;;1.00;0.50;;;20.10;63.00;;;;;;5031628;28;20045;-75
2023/04/15 08:25:22;;;;;;;2.22;0.50;;;20.10;63.00;;;;;;5037158;28;20049;-75
2023/04/15 08:27:49;;;;;;;0.75;0.40;;;20.10;63.00;;;;;;5029774;28;20486;-75
2023/04/15 08:30:17;;;;;;;2.28;0.60;;;20.10;63.10;;;;;;5035103;28;20049;-75
2023/04/15 08:32:46;;;;;;;0.90;0.50;;;20.10;63.10;;;;;;5026824;28;20082;-74
2023/04/15 08:35:14;;;;;;;1.00;0.52;;;20.10;63.20;;;;;;5025304;28;20130;-75
2023/04/15 08:37:42;;;;;;;0.90;0.43;;;20.00;63.20;;;;;;5021176;28;20132;-75
2023/04/15 08:40:10;;;;;;;0.70;0.40;;;20.00;63.20;;;;;;5032396;28;20053;-75
2023/04/15 08:42:41;;;;;;;0.98;0.63;;;20.00;63.20;;;;;;5034920;28;20061;-73
2023/04/15 08:45:10;;;;;;;2.72;0.38;;;20.00;63.30;;;;;;5037407;28;20052;-75
2023/04/15 08:47:38;;;;;;;0.75;0.35;;;20.00;63.40;;;;;;5033841;28;20046;-75
2023/04/15 08:50:09;;;;;;;0.70;0.40;;;20.00;63.40;;;;;;5023919;28;20545;-75
2023/04/15 08:52:36;;;;;;;0.80;0.68;;;19.90;63.40;;;;;;5038890;28;20055;-74
2023/04/15 08:55:07;;;;;;;0.80;0.38;;;20.00;63.40;;;;;;5036380;28;20053;-75
2023/04/15 08:57:35;;;;;;;1.20;0.50;;;20.00;63.50;;;;;;5042305;28;20055;-75
2023/04/15 09:00:03;;;;;;;0.70;0.50;;;19.90;63.50;;;;;;5038893;28;20063;-75
2023/04/15 09:02:31;;;;;;;1.02;0.55;;;19.90;63.50;;;;;;5021797;28;20072;-75
2023/04/15 09:04:58;;;;;;;0.93;0.55;;;19.90;63.50;;;;;;5022821;28;20049;-76
2023/04/15 09:07:25;;;;;;;1.08;0.60;;;20.00;63.60;;;;;;5033069;28;20065;-75
2023/04/15 09:09:53;;;;;;;1.35;0.52;;;19.90;63.60;;;;;;5031689;28;20049;-76
2023/04/15 09:12:21;;;;;;;0.90;0.30;;;19.90;63.60;;;;;;5025286;28;20423;-75
2023/04/15 09:14:49;;;;;;;0.60;0.10;;;19.90;63.70;;;;;;5026577;28;20643;-76
2023/04/15 09:17:19;;;;;;;0.90;0.43;;;19.90;63.70;;;;;;5022786;28;20053;-76
2023/04/15 09:19:47;;;;;;;0.88;0.57;;;19.90;63.70;;;;;;5024046;28;20049;-75
2023/04/15 09:22:14;;;;;;;0.98;0.65;;;19.90;63.70;;;;;;5035482;28;20060;-75
2023/04/15 09:24:42;;;;;;;1.05;0.50;;;19.80;63.70;;;;;;5025984;28;20057;-76
2023/04/15 09:27:09;;;;;;;1.63;0.50;;;19.80;63.70;;;;;;5032957;28;20124;-74
2023/04/15 09:29:38;;;;;;;1.35;0.57;;;19.90;63.80;;;;;;5024129;28;20138;-75
2023/04/15 09:32:12;;;;;;;1.83;1.08;;;19.90;63.80;;;;;;5025076;28;20042;-74
2023/04/15 09:34:39;;;;;;;1.23;0.40;;;19.80;63.80;;;;;;5025745;28;20060;-75
2023/04/15 09:37:09;;;;;;;1.10;0.60;;;19.80;63.80;;;;;;5024587;28;20057;-76
2023/04/15 09:39:48;;;;;;;2.13;0.40;;;19.80;63.80;;;;;;5027968;28;20049;-74
2023/04/15 09:42:16;;;;;;;1.50;0.50;;;19.80;63.90;;;;;;5026002;28;20053;-75
2023/04/15 09:44:44;;;;;;;1.83;0.50;;;19.80;63.90;;;;;;5025064;28;20049;-74
2023/04/15 09:47:28;;;;;;;0.63;0.40;;;19.80;63.90;;;;;;5031870;28;20483;-75
2023/04/15 09:49:58;;;;;;;0.82;0.45;;;19.80;63.90;;;;;;5039172;28;20048;-75
2023/04/15 09:52:26;;;;;;;2.70;0.43;;;19.80;63.90;;;;;;5020654;28;20644;-75
2023/04/15 09:54:55;;;;;;;1.73;0.60;;;19.80;63.90;;;;;;5036973;28;20140;-74
2023/04/15 09:57:23;;;;;;;0.95;0.45;;;19.80;64.00;;;;;;5030122;28;20049;-75
2023/04/15 09:59:51;;;;;;;0.95;0.50;;;19.80;63.90;;;;;;5039700;28;20128;-75
2023/04/15 10:02:20;;;;;;;1.77;0.47;;;19.80;63.90;;;;;;5025137;28;20108;-75
2023/04/15 10:04:48;;;;;;;1.27;0.45;;;19.80;64.00;;;;;;5024225;28;20057;-75
2023/04/15 10:07:19;;;;;;;3.53;0.60;;;19.80;64.00;;;;;;5027764;28;20061;-75
2023/04/15 10:09:47;;;;;;;0.93;0.80;;;19.80;64.00;;;;;;5022223;28;20082;-75
2023/04/15 10:12:16;;;;;;;1.38;0.40;;;19.80;64.00;;;;;;5029393;28;20049;-79
2023/04/15 10:14:44;;;;;;;1.33;0.50;;;19.80;64.10;;;;;;5025472;28;20041;-78
2023/04/15 10:17:13;;;;;;;1.17;0.40;;;19.80;64.00;;;;;;5032754;28;20514;-79
2023/04/15 10:19:41;;;;;;;1.67;1.58;;;19.80;64.10;;;;;;5032228;28;20140;-77
2023/04/15 10:22:08;;;;;;;0.95;0.47;;;19.80;64.10;;;;;;5028766;28;20053;-76
2023/04/15 10:24:36;;;;;;;0.93;0.47;;;19.80;64.10;;;;;;5040886;28;20085;-82
2023/04/15 10:27:05;;;;;;;0.73;0.45;;;19.80;64.10;;;;;;5035866;28;20044;-79
2023/04/15 10:29:32;;;;;;;0.90;0.70;;;19.80;64.10;;;;;;5031451;28;20049;-78
2023/04/15 10:32:01;;;;;;;1.13;0.50;;;19.80;64.10;;;;;;5031909;28;20512;-75
2023/04/15 10:34:31;;;;;;;1.08;0.20;;;19.90;64.20;;;;;;5018311;28;20414;-76
2023/04/15 10:37:02;;;;;;;0.90;0.63;;;19.80;64.10;;;;;;5020602;28;20075;-75
2023/04/15 10:39:43;;;;;;;2.35;0.52;;;19.90;64.10;;;;;;5018488;28;20053;-76
2023/04/15 10:42:12;;;;;;;0.80;0.10;;;19.80;64.10;;;;;;5036173;28;20410;-75
2023/04/15 10:44:39;;;;;;;1.50;0.50;;;19.90;64.10;;;;;;5034470;28;20132;-76
2023/04/15 10:47:17;;;;;;;2.55;0.55;;;19.90;64.20;;;;;;5022255;28;20518;-74
2023/04/15 10:49:48;;;;;;;1.20;0.40;;;19.90;64.10;;;;;;5033787;28;20055;-75
2023/04/15 10:52:17;;;;;;;1.08;0.10;;;19.90;64.20;;;;;;5020367;28;20415;-75
2023/04/15 10:54:44;;;;;;;1.17;0.65;;;19.90;64.80;;;;;;5027309;28;20053;-75
2023/04/15 10:57:21;;;;;;;0.98;0.88;;;19.90;64.20;;;;;;5031147;28;20037;-75
2023/04/15 11:00:19;;;;;;;0.95;0.45;;;19.90;64.20;;;;;;5025100;28;20517;-75
2023/04/15 11:02:48;;;;;;;0.95;0.57;;;19.90;64.20;;;;;;5031232;28;20055;-75
2023/04/15 11:05:17;;;;;;;0.73;0.47;;;19.90;64.20;;;;;;5031736;28;20116;-75
2023/04/15 11:07:50;;;;;;;1.58;0.40;;;19.90;64.20;;;;;;5041263;28;20053;-75
2023/04/15 11:10:54;;;;;;;0.73;0.40;;;19.90;64.30;;;;;;5028408;28;20052;-76
2023/04/15 11:13:24;;;;;;;1.17;0.68;;;19.80;64.20;;;;;;5028936;28;20058;-75
2023/04/15 11:15:55;;;;;;;0.80;0.68;;;19.80;64.20;;;;;;5024103;28;20049;-75
2023/04/15 11:18:24;;;;;;;1.00;0.57;;;19.80;64.20;;;;;;5029408;28;20048;-74
2023/04/15 11:20:56;;;;;;;1.95;0.30;;;19.80;64.30;;;;;;5034602;28;20042;-75
2023/04/15 11:23:29;;;;;;;0.77;0.25;;;19.80;64.20;;;;;;5026109;28;20461;-74
2023/04/15 11:25:58;;;;;;;3.08;0.55;;;19.80;64.30;;;;;;5020847;28;20053;-76
2023/04/15 11:28:27;;;;;;;2.03;0.50;;;19.80;64.30;;;;;;5023251;28;20483;-75
2023/04/15 11:30:55;;;;;;;1.08;0.88;;;19.80;64.30;;;;;;5030496;28;20552;-75
2023/04/15 11:33:23;;;;;;;1.38;0.40;;;19.80;64.40;;;;;;5022644;28;20058;-74
2023/04/15 11:35:52;;;;;;;0.85;0.35;;;19.80;64.40;;;;;;5024569;28;20045;-75
2023/04/15 11:38:21;;;;;;;1.00;0.63;;;19.80;64.30;;;;;;5036253;28;20056;-74
2023/04/15 11:40:50;;;;;;;2.78;0.47;;;19.80;64.40;;;;;;5023205;28;20061;-75
2023/04/15 11:43:19;;;;;;;1.77;0.60;;;19.80;64.40;;;;;;5027628;28;20053;-75
2023/04/15 11:45:51;;;;;;;;;;;19.80;64.40;;;;;;5022826;28;20056;-75
2023/04/15 11:48:19;;;;;;;1.25;0.70;;;19.80;64.40;;;;;;5020344;28;19961;-75
2023/04/15 11:50:47;;;;;;;0.88;0.40;;;19.80;64.40;;;;;;5017788;28;20045;-75
2023/04/15 11:53:14;;;;;;;0.90;0.47;;;19.80;64.40;;;;;;5018983;28;20054;-75
2023/04/15 11:55:45;;;;;;;0.82;0.47;;;19.80;64.40;;;;;;5026003;28;20071;-75
2023/04/15 11:58:14;;;;;;;0.80;0.40;;;19.80;64.40;;;;;;5018146;28;20391;-75
2023/04/15 12:00:41;;;;;;;0.90;0.40;;;19.80;64.40;;;;;;5018616;28;21738;-75
2023/04/15 12:03:20;;;;;;;0.90;0.50;;;19.80;64.40;;;;;;5029614;28;20056;-74
2023/04/15 12:06:08;;;;;;;1.10;0.50;;;19.80;64.50;;;;;;5024754;28;20049;-73
2023/04/15 12:08:58;;;;;;;0.75;0.35;;;19.80;64.40;;;;;;5022445;28;20056;-75
2023/04/15 12:11:35;;;;;;;0.90;0.73;;;19.70;64.40;;;;;;5024516;28;20140;-74
2023/04/15 12:14:08;;;;;;;2.17;0.43;;;19.80;64.40;;;;;;5025761;28;20132;-74
2023/04/15 12:16:36;;;;;;;0.98;0.75;;;19.80;64.50;;;;;;5029737;28;20057;-84
2023/04/15 12:19:07;;;;;;;0.82;0.38;;;19.70;64.50;;;;;;5044382;28;20063;-77
2023/04/15 12:21:36;;;;;;;0.63;0.10;;;19.70;64.50;;;;;;5035433;28;20447;-84
2023/04/15 12:24:04;;;;;;;;;;;19.80;64.60;;;;;;5031049;28;20076;-82
2023/04/15 12:26:36;;;;;;;0.75;0.25;;;19.80;64.60;;;;;;5038970;28;19921;-82
2023/04/15 12:29:05;;;;;;;1.00;0.52;;;19.70;64.50;;;;;;5042750;28;20052;-86
2023/04/15 12:31:32;;;;;;;0.82;0.40;;;19.70;64.50;;;;;;5041865;28;20497;-84
2023/04/15 12:34:00;;;;;;;1.38;0.47;;;19.70;64.50;;;;;;5032493;28;20064;-85
2023/04/15 12:36:29;;;;;;;1.48;0.52;;;19.70;64.50;;;;;;5030556;28;20060;-82
2023/04/15 12:38:56;;;;;;;0.90;0.38;;;19.70;64.50;;;;;;5037715;28;20041;-84
2023/04/15 12:41:24;;;;;;;0.80;0.35;;;19.70;64.60;;;;;;5033698;28;20053;-76
2023/04/15 12:43:52;;;;;;;0.80;0.45;;;19.70;64.60;;;;;;5031367;28;20123;-78
2023/04/15 12:46:19;;;;;;;1.42;0.45;;;19.70;64.60;;;;;;5035795;28;20056;-78
2023/04/15 12:48:47;;;;;;;1.45;0.40;;;19.70;64.60;;;;;;5042510;28;20636;-79
2023/04/15 12:51:14;;;;;;;1.67;0.45;;;19.70;64.60;;;;;;5046763;28;20413;-79
2023/04/15 12:53:41;;;;;;;1.00;0.60;;;19.70;64.60;;;;;;5044211;28;20053;-80